createdAt,value
2018-10-07T00:00:54.626Z,95539.76
2018-10-07T00:03:24.472Z,95539.77
2018-10-07T00:05:54.263Z,95541.28
2018-10-07T00:08:24.068Z,95549.37
2018-10-07T00:10:53.922Z,95548.32
2018-10-07T00:13:23.700Z,95547.47
2018-10-07T00:15:53.529Z,95555.37
2018-10-07T00:18:23.362Z,95552.97
2018-10-07T00:20:53.212Z,95550.72
2018-10-07T00:23:23.051Z,95556.70
2018-10-07T00:25:52.839Z,95557.58
2018-10-07T00:28:23.460Z,95552.77
2018-10-07T00:30:53.209Z,95554.92
2018-10-07T00:33:22.995Z,95553.05
2018-10-07T00:35:52.810Z,95551.86
2018-10-07T00:38:22.603Z,95558.61
2018-10-07T00:40:52.594Z,95555.78
2018-10-07T00:43:22.364Z,95547.83
2018-10-07T00:45:52.243Z,95545.86
2018-10-07T00:48:21.996Z,95546.65
2018-10-07T00:50:52.202Z,95541.91
2018-10-07T00:53:21.980Z,95548.48
2018-10-07T00:55:51.827Z,95541.91
2018-10-07T00:58:21.726Z,95543.36
2018-10-07T01:00:51.539Z,95542.14
2018-10-07T01:03:21.490Z,95543.75
2018-10-07T01:05:51.307Z,95538.37
2018-10-07T01:08:21.135Z,95544.01
2018-10-07T01:10:50.927Z,95545.59
2018-10-07T01:13:20.731Z,95539.83
2018-10-07T01:16:24.894Z,95535.15
2018-10-07T01:18:54.752Z,95538.27
2018-10-07T01:21:24.930Z,95547.02
2018-10-07T01:23:54.734Z,95548.12
2018-10-07T01:26:24.905Z,95540.88
2018-10-07T01:28:54.694Z,95541.80
2018-10-07T01:31:24.514Z,95543.16
2018-10-07T01:33:54.365Z,95546.77
2018-10-07T01:36:24.224Z,95551.03
2018-10-07T01:38:54.037Z,95552.13
2018-10-07T01:41:23.886Z,95542.27
2018-10-07T01:43:53.686Z,95538.15
2018-10-07T01:46:23.772Z,95527.47
2018-10-07T01:48:53.634Z,95540.88
2018-10-07T01:51:23.438Z,95531.28
2018-10-07T01:53:53.238Z,95538.81
2018-10-07T01:56:23.023Z,95540.44
2018-10-07T01:58:52.799Z,95549.40
2018-10-07T02:01:22.574Z,95547.91
2018-10-07T02:03:52.427Z,95544.45
2018-10-07T02:06:22.209Z,95556.11
2018-10-07T02:08:52.004Z,95554.02
2018-10-07T02:11:21.776Z,95557.41
2018-10-07T02:13:51.621Z,95558.44
2018-10-07T02:16:21.550Z,95553.21
2018-10-07T02:18:51.348Z,95555.23
2018-10-07T02:21:21.156Z,95562.08
2018-10-07T02:23:50.955Z,95570.59
2018-10-07T02:26:20.766Z,95577.80
2018-10-07T02:28:51.506Z,95591.45
2018-10-07T02:31:21.380Z,95599.80
2018-10-07T02:33:51.182Z,95589.59
2018-10-07T02:36:21.041Z,95586.30
2018-10-07T02:38:50.864Z,95590.97
2018-10-07T02:41:20.823Z,95595.89
2018-10-07T02:43:50.652Z,95602.70
2018-10-07T02:46:20.474Z,95607.04
2018-10-07T02:48:50.294Z,95607.09
2018-10-07T02:51:20.128Z,95603.83
2018-10-07T02:53:49.955Z,95608.94
2018-10-07T02:56:19.899Z,95606.56
2018-10-07T02:58:49.710Z,95605.63
2018-10-07T03:01:19.518Z,95607.69
2018-10-07T03:03:49.398Z,95613.67
2018-10-07T03:06:19.245Z,95618.27
2018-10-07T03:08:49.077Z,95621.62
2018-10-07T03:11:18.839Z,95624.52
2018-10-07T03:13:48.693Z,95623.77
2018-10-07T03:16:18.545Z,95620.12
2018-10-07T03:18:48.350Z,95625.78
2018-10-07T03:21:18.197Z,95630.13
2018-10-07T03:23:48.025Z,95631.27
2018-10-07T03:26:17.783Z,95632.28
2018-10-07T03:28:47.604Z,95639.95
2018-10-07T03:31:17.568Z,95640.68
2018-10-07T03:33:47.335Z,95643.41
2018-10-07T03:36:17.127Z,95646.44
2018-10-07T03:38:46.903Z,95654.77
2018-10-07T03:41:16.855Z,95659.16
2018-10-07T03:43:46.695Z,95652.86
2018-10-07T03:46:16.497Z,95653.34
2018-10-07T03:48:46.265Z,95652.25
2018-10-07T03:51:16.031Z,95650.10
2018-10-07T03:53:45.884Z,95644.86
2018-10-07T03:56:15.702Z,95640.13
2018-10-07T03:58:45.461Z,95644.06
2018-10-07T04:01:15.304Z,95647.78
2018-10-07T04:03:45.306Z,95646.61
2018-10-07T04:06:15.472Z,95649.28
2018-10-07T04:08:45.261Z,95654.27
2018-10-07T04:11:15.034Z,95650.01
2018-10-07T04:13:44.859Z,95650.45
2018-10-07T04:16:14.788Z,95653.85
2018-10-07T04:18:44.575Z,95645.53
2018-10-07T04:21:14.366Z,95643.27
2018-10-07T04:23:44.162Z,95643.09
2018-10-07T04:26:13.916Z,95644.30
2018-10-07T04:28:43.723Z,95653.95
2018-10-07T04:31:13.506Z,95646.10
2018-10-07T04:33:43.318Z,95655.36
2018-10-07T04:36:13.171Z,95647.23
2018-10-07T04:38:43.292Z,95657.51
2018-10-07T04:41:13.069Z,95661.99
2018-10-07T04:43:42.788Z,95657.34
2018-10-07T04:46:12.779Z,95658.09
2018-10-07T04:48:42.592Z,95658.20
2018-10-07T04:51:12.376Z,95665.20
2018-10-07T04:53:42.196Z,95661.10
2018-10-07T04:56:11.960Z,95660.40
2018-10-07T04:58:41.689Z,95665.16
2018-10-07T05:01:11.554Z,95668.99
2018-10-07T05:03:41.362Z,95671.18
2018-10-07T05:06:11.534Z,95672.07
2018-10-07T05:08:41.508Z,95672.34
2018-10-07T05:11:11.454Z,95669.06
2018-10-07T05:13:48.421Z,95679.69
2018-10-07T05:16:35.295Z,95683.64
2018-10-07T05:19:05.181Z,95688.09
2018-10-07T05:21:35.371Z,95687.59
2018-10-07T05:24:05.414Z,95692.28
2018-10-07T05:26:35.280Z,95699.58
2018-10-07T05:29:05.062Z,95690.09
2018-10-07T05:31:34.792Z,95701.81
2018-10-07T05:34:04.560Z,95705.95
2018-10-07T05:36:34.343Z,95697.08
2018-10-07T05:39:05.432Z,95703.03
2018-10-07T05:41:35.220Z,95703.14
2018-10-07T05:44:05.060Z,95705.64
2018-10-07T05:46:34.889Z,95711.33
2018-10-07T05:49:04.760Z,95706.00
2018-10-07T05:51:34.574Z,95714.62
2018-10-07T05:54:04.338Z,95713.39
2018-10-07T05:56:34.181Z,95714.98
2018-10-07T05:59:04.025Z,95724.64
2018-10-07T06:01:38.057Z,95717.41
2018-10-07T06:04:18.508Z,95724.97
2018-10-07T06:06:48.754Z,95732.16
2018-10-07T06:09:25.259Z,95729.30
2018-10-07T06:11:55.486Z,95735.64
2018-10-07T06:14:42.069Z,95730.66
2018-10-07T06:17:12.064Z,95736.81
2018-10-07T06:19:42.001Z,95740.20
2018-10-07T06:22:12.174Z,95742.80
2018-10-07T06:24:42.310Z,95751.03
2018-10-07T06:27:12.374Z,95754.69
2018-10-07T06:29:42.623Z,95754.30
2018-10-07T06:32:12.715Z,95754.06
2018-10-07T06:34:42.879Z,95756.91
2018-10-07T06:37:13.278Z,95760.76
2018-10-07T06:39:43.078Z,95752.18
2018-10-07T06:42:13.110Z,95751.64
2018-10-07T06:44:42.946Z,95746.97
2018-10-07T06:47:13.022Z,95751.50
2018-10-07T06:49:42.800Z,95748.53
2018-10-07T06:52:12.890Z,95757.50
2018-10-07T06:54:42.662Z,95760.51
2018-10-07T06:57:12.800Z,95771.61
2018-10-07T06:59:42.591Z,95770.24
2018-10-07T07:02:12.661Z,95778.37
2018-10-07T07:04:42.477Z,95779.74
2018-10-07T07:07:12.237Z,95785.73
2018-10-07T07:09:42.039Z,95785.78
2018-10-07T07:12:11.832Z,95783.00
2018-10-07T07:14:41.785Z,95783.82
2018-10-07T07:17:11.589Z,95785.16
2018-10-07T07:19:41.371Z,95782.06
2018-10-07T07:22:11.211Z,95783.31
2018-10-07T07:24:41.025Z,95786.01
2018-10-07T07:27:11.195Z,95795.83
2018-10-07T07:29:40.953Z,95794.22
2018-10-07T07:32:10.699Z,95797.39
2018-10-07T07:34:40.466Z,95799.45
2018-10-07T07:37:10.279Z,95801.25
2018-10-07T07:39:40.147Z,95802.55
2018-10-07T07:42:09.951Z,95801.97
2018-10-07T07:44:39.949Z,95804.84
2018-10-07T07:47:09.743Z,95806.48
2018-10-07T07:49:39.619Z,95800.59
2018-10-07T07:52:09.415Z,95799.66
2018-10-07T07:54:39.241Z,95801.75
2018-10-07T07:57:09.037Z,95794.19
2018-10-07T07:59:38.897Z,95806.95
2018-10-07T08:02:08.733Z,95807.05
2018-10-07T08:04:38.459Z,95814.33
2018-10-07T08:07:08.251Z,95807.29
2018-10-07T08:09:38.089Z,95817.16
2018-10-07T08:12:07.851Z,95819.83
2018-10-07T08:14:37.621Z,95817.80
2018-10-07T08:17:07.465Z,95814.08
2018-10-07T08:19:37.227Z,95814.27
2018-10-07T08:22:07.345Z,95812.49
2018-10-07T08:24:37.105Z,95813.50
2018-10-07T08:27:06.921Z,95817.88
2018-10-07T08:29:36.757Z,95813.96
2018-10-07T08:32:06.750Z,95813.59
2018-10-07T08:34:37.503Z,95814.41
2018-10-07T08:37:07.619Z,95808.84
2018-10-07T08:39:37.945Z,95812.44
2018-10-07T08:42:07.827Z,95816.56
2018-10-07T08:44:38.245Z,95811.05
2018-10-07T08:47:08.585Z,95815.23
2018-10-07T08:49:39.008Z,95811.28
2018-10-07T08:52:09.579Z,95818.24
2018-10-07T08:54:39.941Z,95820.94
2018-10-07T08:57:10.301Z,95814.13
2018-10-07T08:59:40.665Z,95819.48
2018-10-07T09:02:11.010Z,95817.03
2018-10-07T09:04:41.623Z,95813.41
2018-10-07T09:07:11.971Z,95809.47
2018-10-07T09:09:42.297Z,95811.19
2018-10-07T09:12:12.647Z,95804.80
2018-10-07T09:14:43.039Z,95805.57
2018-10-07T09:17:13.615Z,95804.01
2018-10-07T09:19:43.914Z,95800.58
2018-10-07T09:22:14.434Z,95798.00
2018-10-07T09:24:44.748Z,95807.73
2018-10-07T09:27:15.083Z,95810.45
2018-10-07T09:29:46.317Z,95814.38
2018-10-07T09:32:16.736Z,95816.17
2018-10-07T09:34:47.327Z,95822.05
2018-10-07T09:37:17.652Z,95823.81
2018-10-07T09:39:48.016Z,95822.48
2018-10-07T09:42:18.510Z,95821.63
2018-10-07T09:44:49.205Z,95822.31
2018-10-07T09:47:19.592Z,95824.17
2018-10-07T09:49:50.152Z,95823.45
2018-10-07T09:52:20.581Z,95824.85
2018-10-07T09:54:51.094Z,95831.33
2018-10-07T09:57:21.417Z,95829.18
2018-10-07T09:59:51.774Z,95827.62
2018-10-07T10:02:22.095Z,95826.41
2018-10-07T10:04:52.469Z,95829.51
2018-10-07T10:07:23.020Z,95827.52
2018-10-07T10:09:53.417Z,95825.78
2018-10-07T10:12:23.877Z,95829.63
2018-10-07T10:14:54.265Z,95820.86
2018-10-07T10:17:25.238Z,95824.23
2018-10-07T10:20:04.788Z,95818.85
2018-10-07T10:23:24.638Z,95820.09
2018-10-07T10:28:13.247Z,95829.19
2018-10-07T10:31:23.709Z,95836.09
2018-10-07T10:36:42.709Z,95837.88
2018-10-07T10:40:25.076Z,95841.06
2018-10-07T10:43:04.547Z,95840.33
2018-10-07T10:46:43.842Z,95840.23
2018-10-07T10:49:32.983Z,95840.64
2018-10-07T10:52:17.602Z,95836.58
2018-10-07T10:54:58.938Z,95839.23
2018-10-07T10:57:49.372Z,95839.87
2018-10-07T11:00:24.547Z,95842.77
2018-10-07T11:03:11.072Z,95838.06
2018-10-07T11:05:53.418Z,95837.70
2018-10-07T11:10:56.150Z,95843.55
2018-10-07T11:14:02.299Z,95841.49
2018-10-07T11:17:45.816Z,95840.22
2018-10-07T11:20:25.656Z,95847.15
2018-10-07T11:23:14.240Z,95836.86
2018-10-07T11:27:27.173Z,95839.36
2018-10-07T11:31:12.810Z,95835.20
2018-10-07T11:34:00.920Z,95834.52
2018-10-07T11:41:04.946Z,95836.55
2018-10-07T11:43:59.118Z,95828.10
2018-10-07T11:46:47.928Z,95836.12
2018-10-07T11:49:24.462Z,95829.46
2018-10-07T11:52:07.498Z,95826.36
2018-10-07T11:55:02.513Z,95829.44
2018-10-07T11:57:32.934Z,95832.23
2018-10-07T12:00:03.570Z,95831.89
2018-10-07T12:02:34.121Z,95822.67
2018-10-07T12:05:04.682Z,95820.98
2018-10-07T12:07:35.109Z,95821.88
2018-10-07T12:10:05.663Z,95819.41
2018-10-07T12:12:36.206Z,95817.42
2018-10-07T12:15:06.676Z,95808.78
2018-10-07T12:17:37.063Z,95808.48
2018-10-07T12:20:07.576Z,95825.48
2018-10-07T12:22:37.902Z,95817.88
2018-10-07T12:25:08.376Z,95804.12
2018-10-07T12:27:38.682Z,95819.47
2018-10-07T12:30:09.002Z,95815.16
2018-10-07T12:32:39.304Z,95808.84
2018-10-07T12:35:09.598Z,95815.92
2018-10-07T12:37:39.976Z,95811.45
2018-10-07T12:40:10.305Z,95817.79
2018-10-07T12:42:40.669Z,95811.61
2018-10-07T12:45:11.150Z,95814.70
2018-10-07T12:47:41.489Z,95804.08
2018-10-07T12:50:11.783Z,95815.30
2018-10-07T12:52:42.704Z,95818.69
2018-10-07T12:55:13.129Z,95815.59
2018-10-07T12:57:43.500Z,95816.51
2018-10-07T13:00:13.783Z,95813.60
2018-10-07T13:02:44.149Z,95814.06
2018-10-07T13:05:14.541Z,95810.05
2018-10-07T13:07:44.977Z,95806.84
2018-10-07T13:10:15.438Z,95805.77
2018-10-07T13:12:45.777Z,95803.00
2018-10-07T13:15:16.084Z,95804.06
2018-10-07T13:17:46.640Z,95802.08
2018-10-07T13:20:16.980Z,95805.00
2018-10-07T13:22:47.325Z,95802.55
2018-10-07T13:25:17.622Z,95808.13
2018-10-07T13:27:47.922Z,95798.25
2018-10-07T13:30:18.303Z,95806.25
2018-10-07T13:32:48.989Z,95805.34
2018-10-07T13:35:19.306Z,95810.90
2018-10-07T13:37:49.610Z,95797.03
2018-10-07T13:40:19.933Z,95805.31
2018-10-07T13:42:50.222Z,95806.54
2018-10-07T13:45:20.529Z,95808.53
2018-10-07T13:47:50.809Z,95793.64
2018-10-07T13:50:21.147Z,95807.33
2018-10-07T13:52:51.688Z,95803.63
2018-10-07T13:55:22.097Z,95801.16
2018-10-07T13:57:52.385Z,95806.09
2018-10-07T14:00:22.700Z,95792.84
2018-10-07T14:02:53.026Z,95801.64
2018-10-07T14:05:23.339Z,95803.02
2018-10-07T14:07:53.811Z,95804.86
2018-10-07T14:10:24.162Z,95805.78
2018-10-07T14:12:54.486Z,95807.63
2018-10-07T14:15:24.786Z,95804.56
2018-10-07T14:17:55.167Z,95795.78
2018-10-07T14:20:25.458Z,95799.48
2018-10-07T14:22:55.813Z,95790.23
2018-10-07T14:25:26.083Z,95796.23
2018-10-07T14:27:56.445Z,95793.78
2018-10-07T14:30:26.715Z,95789.17
2018-10-07T14:32:57.049Z,95797.48
2018-10-07T14:35:27.355Z,95790.84
2018-10-07T14:37:57.663Z,95802.84
2018-10-07T14:40:28.327Z,95808.10
2018-10-07T14:42:58.659Z,95817.62
2018-10-07T14:45:28.961Z,95803.94
2018-10-07T14:47:59.312Z,95794.08
2018-10-07T14:50:29.699Z,95799.33
2018-10-07T14:53:00.017Z,95803.78
2018-10-07T14:55:30.379Z,95798.87
2018-10-07T14:58:00.795Z,95804.99
2018-10-07T15:00:31.095Z,95803.47
2018-10-07T15:03:01.417Z,95802.22
2018-10-07T15:05:31.700Z,95802.09
2018-10-07T15:08:02.021Z,95811.46
2018-10-07T15:10:32.339Z,95801.44
2018-10-07T15:13:02.659Z,95806.53
2018-10-07T15:15:33.066Z,95808.86
2018-10-07T15:18:03.357Z,95817.91
2018-10-07T15:20:33.647Z,95812.21
2018-10-07T15:23:03.971Z,95816.22
2018-10-07T15:25:34.357Z,95813.59
2018-10-07T15:28:04.659Z,95813.77
2018-10-07T15:30:34.941Z,95815.62
2018-10-07T15:33:05.373Z,95823.28
2018-10-07T15:35:35.691Z,95825.75
2018-10-07T15:38:06.209Z,95818.19
2018-10-07T15:40:37.923Z,95817.31
2018-10-07T15:43:08.273Z,95816.20
2018-10-07T15:45:38.561Z,95825.28
2018-10-07T15:48:08.823Z,95827.88
2018-10-07T15:50:39.141Z,95839.39
2018-10-07T15:53:09.439Z,95840.91
2018-10-07T15:55:39.824Z,95837.16
2018-10-07T15:58:10.323Z,95837.32
2018-10-07T16:00:40.635Z,95836.24
2018-10-07T16:03:10.963Z,95839.91
2018-10-07T16:05:41.289Z,95845.93
2018-10-07T16:08:11.870Z,95849.59
2018-10-07T16:10:42.197Z,95849.72
2018-10-07T16:13:12.506Z,95849.72
2018-10-07T16:15:42.864Z,95847.37
2018-10-07T16:18:13.179Z,95857.60
2018-10-07T16:20:43.527Z,95855.92
2018-10-07T16:23:13.904Z,95864.69
2018-10-07T16:25:44.185Z,95862.36
2018-10-07T16:28:14.484Z,95860.59
2018-10-07T16:30:44.803Z,95871.15
2018-10-07T16:33:15.153Z,95866.14
2018-10-07T16:35:45.473Z,95865.92
2018-10-07T16:38:16.184Z,95875.48
2018-10-07T16:40:46.545Z,95887.52
2018-10-07T16:43:16.903Z,95888.64
2018-10-07T16:45:47.274Z,95893.55
2018-10-07T16:48:17.599Z,95900.41
2018-10-07T16:50:47.903Z,95899.98
2018-10-07T16:53:18.215Z,95904.52
2018-10-07T16:55:48.558Z,95902.22
2018-10-07T16:58:18.898Z,95899.39
2018-10-07T17:00:49.282Z,95905.05
2018-10-07T17:03:19.578Z,95910.88
2018-10-07T17:05:49.878Z,95909.33
2018-10-07T17:08:20.271Z,95919.30
2018-10-07T17:10:50.579Z,95921.25
2018-10-07T17:13:20.936Z,95928.53
2018-10-07T17:15:51.470Z,95931.16
2018-10-07T17:18:21.483Z,95933.77
2018-10-07T17:20:51.295Z,95939.47
2018-10-07T17:23:21.266Z,95944.42
2018-10-07T17:25:51.072Z,95948.92
2018-10-07T17:28:20.854Z,95941.52
2018-10-07T17:30:50.647Z,95940.33
2018-10-07T17:33:20.959Z,95944.01
2018-10-07T17:35:50.802Z,95945.55
2018-10-07T17:38:20.697Z,95954.85
2018-10-07T17:40:50.458Z,95958.41
2018-10-07T17:43:20.176Z,95965.05
2018-10-07T17:45:49.972Z,95966.56
2018-10-07T17:48:19.829Z,95971.30
2018-10-07T17:50:49.662Z,95974.13
2018-10-07T17:53:19.426Z,95970.27
2018-10-07T17:55:49.152Z,95970.35
2018-10-07T17:58:18.900Z,95973.48
2018-10-07T18:00:48.732Z,95975.28
2018-10-07T18:03:18.547Z,95976.58
2018-10-07T18:05:48.516Z,95984.31
2018-10-07T18:08:18.304Z,95980.62
2018-10-07T18:10:48.096Z,95984.23
2018-10-07T18:13:17.896Z,95982.94
2018-10-07T18:15:47.716Z,95985.62
2018-10-07T18:18:17.503Z,95989.14
2018-10-07T18:20:47.264Z,95990.00
2018-10-07T18:23:17.024Z,95998.06
2018-10-07T18:25:46.788Z,95993.08
2018-10-07T18:28:16.626Z,95995.27
2018-10-07T18:30:46.458Z,95995.08
2018-10-07T18:33:16.286Z,95997.08
2018-10-07T18:35:46.096Z,96010.03
2018-10-07T18:38:15.877Z,96006.23
2018-10-07T18:40:45.649Z,96012.84
2018-10-07T18:43:16.125Z,96009.16
2018-10-07T18:45:45.938Z,96012.25
2018-10-07T18:48:15.722Z,96017.66
2018-10-07T18:50:45.493Z,96019.95
2018-10-07T18:53:15.250Z,96018.14
2018-10-07T18:55:45.159Z,96022.38
2018-10-07T18:58:15.017Z,96028.02
2018-10-07T19:00:44.867Z,96036.23
2018-10-07T19:03:16.375Z,96036.45
2018-10-07T19:05:46.169Z,96034.92
2018-10-07T19:08:16.109Z,96042.14
2018-10-07T19:10:46.149Z,96046.55
2018-10-07T19:13:15.946Z,96052.98
2018-10-07T19:15:45.727Z,96051.38
2018-10-07T19:18:15.479Z,96047.69
2018-10-07T19:20:45.334Z,96056.05
2018-10-07T19:23:15.552Z,96058.84
2018-10-07T19:25:47.495Z,96060.66
2018-10-07T19:28:17.286Z,96055.95
2018-10-07T19:30:47.087Z,96057.91
2018-10-07T19:33:16.837Z,96065.69
2018-10-07T19:35:46.595Z,96067.03
2018-10-07T19:38:16.361Z,96070.72
2018-10-07T19:40:46.086Z,96075.59
2018-10-07T19:43:16.048Z,96077.27
2018-10-07T19:45:45.891Z,96075.00
2018-10-07T19:48:15.637Z,96072.69
2018-10-07T19:50:46.257Z,96072.56
2018-10-07T19:53:16.177Z,96073.36
2018-10-07T19:55:46.043Z,96076.17
2018-10-07T19:58:16.557Z,96079.27
2018-10-07T20:03:17.425Z,96077.81
2018-10-07T20:05:50.809Z,96085.84
2018-10-07T20:08:21.293Z,96088.59
2018-10-07T20:10:51.485Z,96087.30
2018-10-07T20:13:21.715Z,96086.99
2018-10-07T20:15:52.060Z,96079.14
2018-10-07T20:18:22.555Z,96086.73
2018-10-07T20:20:53.006Z,96091.47
2018-10-07T20:23:23.421Z,96092.95
2018-10-07T20:26:27.664Z,96086.88
2018-10-07T20:28:57.575Z,96092.03
2018-10-07T20:31:27.927Z,96089.33
2018-10-07T20:33:58.134Z,96091.19
2018-10-07T20:36:28.845Z,96097.60
2018-10-07T20:38:59.119Z,96092.59
2018-10-07T20:41:33.393Z,96090.59
2018-10-07T20:48:15.163Z,96097.86
2018-10-07T20:50:45.901Z,96096.09
2018-10-07T20:53:16.007Z,96098.09
2018-10-07T20:55:45.957Z,96097.95
2018-10-07T20:58:15.939Z,96100.13
2018-10-07T21:00:45.795Z,96098.70
2018-10-07T21:03:15.664Z,96102.81
2018-10-07T21:05:51.095Z,96096.80
2018-10-07T21:08:20.897Z,96090.63
2018-10-07T21:10:50.659Z,96091.54
2018-10-07T21:13:20.390Z,96099.27
2018-10-07T21:15:50.150Z,96096.22
2018-10-07T21:18:20.020Z,96091.63
2018-10-07T21:20:49.804Z,96094.50
2018-10-07T21:23:19.565Z,96095.83
2018-10-07T21:25:49.359Z,96097.00
2018-10-07T21:28:19.148Z,96094.03
2018-10-07T21:30:48.886Z,96096.23
2018-10-07T21:33:18.704Z,96095.92
2018-10-07T21:35:48.476Z,96093.53
2018-10-07T21:38:18.231Z,96093.80
2018-10-07T21:40:48.032Z,96102.23
2018-10-07T21:43:17.800Z,96098.81
2018-10-07T21:45:47.562Z,96107.13
2018-10-07T21:48:17.348Z,96102.62
2018-10-07T21:50:47.195Z,96107.48
2018-10-07T21:53:17.009Z,96108.62
2018-10-07T21:55:46.801Z,96112.45
2018-10-07T21:58:16.560Z,96111.28
2018-10-07T22:00:46.432Z,96105.48
2018-10-07T22:03:16.303Z,96108.56
2018-10-07T22:05:46.370Z,96115.25
2018-10-07T22:08:16.398Z,96118.00
2018-10-07T22:10:46.357Z,96124.62
2018-10-07T22:13:16.171Z,96125.19
2018-10-07T22:15:46.002Z,96120.36
2018-10-07T22:18:15.854Z,96129.13
2018-10-07T22:20:45.657Z,96125.61
2018-10-07T22:23:15.690Z,96121.27
2018-10-07T22:25:45.534Z,96117.39
2018-10-07T22:28:16.124Z,96118.53
2018-10-07T22:30:45.933Z,96123.97
2018-10-07T22:33:15.756Z,96122.44
2018-10-07T22:35:45.572Z,96130.63
2018-10-07T22:38:15.406Z,96131.08
2018-10-07T22:40:45.281Z,96130.94
2018-10-07T22:43:15.070Z,96141.10
2018-10-07T22:45:44.896Z,96131.09
2018-10-07T22:48:15.432Z,96128.97
2018-10-07T22:50:45.387Z,96130.65
2018-10-07T22:53:15.225Z,96130.52
2018-10-07T22:55:45.093Z,96135.99
2018-10-07T22:58:14.963Z,96136.02
2018-10-07T23:00:44.885Z,96140.55
2018-10-07T23:03:14.786Z,96137.42
2018-10-07T23:05:44.653Z,96136.80
2018-10-07T23:08:14.502Z,96141.70
2018-10-07T23:10:44.469Z,96138.78
2018-10-07T23:13:14.276Z,96137.52
2018-10-07T23:15:44.120Z,96140.70
2018-10-07T23:18:13.942Z,96143.43
2018-10-07T23:20:43.815Z,96148.58
2018-10-07T23:23:13.706Z,96147.89
2018-10-07T23:25:43.486Z,96147.17
2018-10-07T23:28:13.238Z,96142.86
2018-10-07T23:30:43.018Z,96145.05
2018-10-07T23:33:12.752Z,96144.84
2018-10-07T23:35:42.564Z,96148.88
2018-10-07T23:38:12.294Z,96149.07
2018-10-07T23:40:43.450Z,96151.42
2018-10-07T23:43:13.205Z,96150.72
2018-10-07T23:45:43.034Z,96151.89
2018-10-07T23:48:12.972Z,96152.91
2018-10-07T23:50:42.876Z,96154.28
2018-10-07T23:53:12.655Z,96152.67
2018-10-07T23:55:42.417Z,96149.51
2018-10-07T23:58:12.220Z,96148.20
